createdAt,value
2023-05-06T00:00:55.911Z,76.82
2023-05-06T00:03:23.349Z,77.18
2023-05-06T00:05:53.081Z,76.55
2023-05-06T00:08:20.727Z,77.28
2023-05-06T00:10:48.176Z,76.77
2023-05-06T00:13:16.127Z,77.60
2023-05-06T00:15:43.609Z,76.29
2023-05-06T00:18:10.992Z,76.05
2023-05-06T00:20:38.387Z,76.39
2023-05-06T00:23:07.886Z,77.18
2023-05-06T00:25:35.259Z,77.09
2023-05-06T00:28:02.612Z,77.30
2023-05-06T00:30:30.160Z,78.04
2023-05-06T00:32:57.541Z,78.13
2023-05-06T00:35:25.086Z,78.29
2023-05-06T00:38:08.766Z,78.24
2023-05-06T00:40:36.619Z,78.71
2023-05-06T00:43:04.008Z,78.76
2023-05-06T00:45:31.908Z,78.70
2023-05-06T00:47:59.450Z,77.51
2023-05-06T00:50:29.712Z,77.24
2023-05-06T00:52:59.346Z,77.80
2023-05-06T00:55:27.868Z,78.31
2023-05-06T00:57:55.321Z,78.32
2023-05-06T01:00:22.996Z,77.97
2023-05-06T01:02:50.533Z,77.83
2023-05-06T01:05:21.068Z,78.89
2023-05-06T01:08:09.553Z,79.91
2023-05-06T01:10:43.017Z,80.48
2023-05-06T01:13:31.816Z,81.89
2023-05-06T01:16:01.572Z,81.27
2023-05-06T01:18:32.372Z,81.64
2023-05-06T01:21:01.889Z,81.13
2023-05-06T01:23:29.223Z,82.27
2023-05-06T01:25:56.939Z,82.74
2023-05-06T01:28:24.290Z,82.35
2023-05-06T01:31:11.617Z,83.12
2023-05-06T01:33:49.925Z,83.71
2023-05-06T01:36:32.818Z,83.92
2023-05-06T01:39:02.268Z,84.34
2023-05-06T01:41:34.023Z,84.05
2023-05-06T01:44:01.915Z,85.18
2023-05-06T01:46:30.641Z,86.16
2023-05-06T01:49:01.214Z,87.14
2023-05-06T01:51:28.672Z,87.42
2023-05-06T01:53:56.042Z,87.70
2023-05-06T01:56:23.657Z,88.19
2023-05-06T01:58:53.761Z,89.08
2023-05-06T02:01:21.172Z,88.79
2023-05-06T02:03:48.677Z,89.51
2023-05-06T02:06:17.551Z,89.61
2023-05-06T02:08:45.225Z,90.16
2023-05-06T02:11:17.201Z,89.34
2023-05-06T02:13:45.251Z,89.61
2023-05-06T02:16:13.284Z,89.22
2023-05-06T02:18:41.436Z,89.41
2023-05-06T02:21:10.106Z,90.45
2023-05-06T02:23:37.432Z,91.40
2023-05-06T02:26:07.700Z,90.76
2023-05-06T02:28:35.052Z,90.86
2023-05-06T02:31:02.523Z,90.96
2023-05-06T02:33:30.054Z,90.77
2023-05-06T02:35:57.375Z,91.12
2023-05-06T02:38:25.017Z,92.10
2023-05-06T02:40:52.396Z,91.69
2023-05-06T02:43:20.037Z,91.14
2023-05-06T02:45:47.915Z,90.58
2023-05-06T02:48:15.241Z,91.81
2023-05-06T02:50:42.616Z,91.90
2023-05-06T02:53:10.510Z,92.05
2023-05-06T02:55:37.925Z,91.77
2023-05-06T02:58:05.327Z,91.26
2023-05-06T03:00:33.863Z,90.90
2023-05-06T03:03:01.368Z,90.84
2023-05-06T03:05:28.788Z,87.52
2023-05-06T03:07:56.428Z,90.66
2023-05-06T03:10:24.597Z,87.41
2023-05-06T03:12:52.086Z,86.53
2023-05-06T03:15:19.641Z,85.43
2023-05-06T03:17:49.170Z,87.12
2023-05-06T03:20:16.809Z,87.68
2023-05-06T03:22:50.725Z,87.71
2023-05-06T03:25:19.621Z,87.91
2023-05-06T03:27:47.076Z,89.56
2023-05-06T03:30:19.327Z,89.95
2023-05-06T03:32:48.942Z,89.29
2023-05-06T03:35:23.124Z,87.87
2023-05-06T03:37:54.672Z,88.75
2023-05-06T03:40:23.855Z,88.45
2023-05-06T03:42:52.337Z,88.69
2023-05-06T03:45:20.477Z,88.54
2023-05-06T03:47:48.394Z,87.84
2023-05-06T03:50:17.315Z,87.79
2023-05-06T03:52:44.818Z,86.73
2023-05-06T03:55:12.532Z,87.93
2023-05-06T03:57:40.085Z,87.97
2023-05-06T04:00:09.147Z,88.78
2023-05-06T04:02:43.638Z,88.15
2023-05-06T04:05:18.466Z,88.27
2023-05-06T04:07:46.635Z,89.47
2023-05-06T04:10:15.013Z,89.32
2023-05-06T04:12:47.288Z,89.73
2023-05-06T04:15:19.702Z,88.59
2023-05-06T04:17:47.155Z,89.33
2023-05-06T04:20:16.160Z,90.18
2023-05-06T04:22:43.520Z,89.47
2023-05-06T04:25:12.168Z,90.03
2023-05-06T04:27:40.129Z,92.05
2023-05-06T04:30:09.551Z,91.48
2023-05-06T04:32:38.710Z,90.05
2023-05-06T04:35:07.670Z,90.21
2023-05-06T04:37:35.213Z,90.44
2023-05-06T04:40:09.310Z,88.84
2023-05-06T04:42:39.569Z,88.46
2023-05-06T04:45:12.375Z,88.15
2023-05-06T04:47:43.076Z,88.77
2023-05-06T04:50:11.161Z,89.15
2023-05-06T04:52:38.563Z,88.93
2023-05-06T04:55:07.019Z,89.36
2023-05-06T04:57:37.034Z,88.96
2023-05-06T05:00:06.554Z,89.13
2023-05-06T05:02:33.982Z,89.76
2023-05-06T05:05:03.459Z,92.16
2023-05-06T05:07:31.026Z,90.74
2023-05-06T05:09:58.429Z,90.06
2023-05-06T05:12:26.158Z,90.62
2023-05-06T05:14:56.665Z,90.50
2023-05-06T05:17:23.995Z,89.97
2023-05-06T05:19:52.869Z,89.43
2023-05-06T05:22:20.848Z,90.26
2023-05-06T05:24:48.253Z,90.38
2023-05-06T05:27:17.138Z,90.80
2023-05-06T05:29:44.633Z,89.92
2023-05-06T05:32:12.015Z,89.51
2023-05-06T05:34:39.703Z,90.02
2023-05-06T05:37:07.720Z,88.86
2023-05-06T05:39:35.291Z,89.74
2023-05-06T05:42:03.690Z,88.77
2023-05-06T05:44:33.423Z,84.86
2023-05-06T05:47:03.902Z,84.78
2023-05-06T05:49:32.021Z,84.25
2023-05-06T05:51:59.462Z,84.04
2023-05-06T05:54:27.742Z,83.36
2023-05-06T05:56:55.150Z,85.57
2023-05-06T05:59:22.906Z,84.63
2023-05-06T06:01:52.889Z,85.37
2023-05-06T06:04:21.098Z,85.56
2023-05-06T06:06:48.537Z,84.72
2023-05-06T06:09:17.284Z,82.18
2023-05-06T06:11:45.523Z,80.31
2023-05-06T06:14:13.386Z,80.20
2023-05-06T06:16:40.909Z,79.26
2023-05-06T06:19:08.671Z,78.70
2023-05-06T06:21:36.839Z,77.87
2023-05-06T06:24:05.023Z,76.88
2023-05-06T06:26:32.506Z,76.28
2023-05-06T06:29:00.144Z,75.40
2023-05-06T06:31:29.353Z,73.47
2023-05-06T06:33:56.862Z,71.44
2023-05-06T06:36:24.297Z,68.22
2023-05-06T06:38:51.607Z,66.35
2023-05-06T06:41:19.010Z,65.35
2023-05-06T06:43:46.343Z,64.91
2023-05-06T06:46:25.335Z,66.43
2023-05-06T06:48:52.744Z,64.70
2023-05-06T06:51:20.147Z,66.18
2023-05-06T06:53:49.069Z,65.40
2023-05-06T06:56:16.553Z,64.19
2023-05-06T06:58:44.247Z,65.95
2023-05-06T07:01:12.719Z,64.47
2023-05-06T07:03:40.212Z,64.88
2023-05-06T07:06:08.586Z,63.84
2023-05-06T07:08:36.052Z,62.86
2023-05-06T07:11:03.594Z,62.53
2023-05-06T07:13:30.939Z,63.03
2023-05-06T07:15:58.801Z,61.68
2023-05-06T07:18:26.174Z,61.16
2023-05-06T07:20:53.759Z,59.92
2023-05-06T07:23:21.431Z,60.00
2023-05-06T07:25:49.120Z,60.24
2023-05-06T07:28:16.612Z,59.24
2023-05-06T07:30:44.071Z,58.37
2023-05-06T07:33:11.445Z,59.09
2023-05-06T07:35:41.820Z,59.51
2023-05-06T07:38:09.189Z,60.40
2023-05-06T07:40:36.607Z,58.89
2023-05-06T07:43:04.125Z,61.41
2023-05-06T07:45:31.683Z,61.05
2023-05-06T07:47:59.164Z,60.68
2023-05-06T07:50:26.694Z,60.55
2023-05-06T07:52:54.002Z,58.97
2023-05-06T07:55:21.364Z,58.80
2023-05-06T07:57:49.736Z,59.11
2023-05-06T08:00:17.334Z,58.79
2023-05-06T08:02:45.016Z,58.96
2023-05-06T08:05:15.470Z,59.39
2023-05-06T08:07:43.084Z,60.42
2023-05-06T08:10:11.083Z,59.47
2023-05-06T08:12:38.696Z,57.97
2023-05-06T08:15:07.037Z,58.01
2023-05-06T08:17:34.332Z,56.53
2023-05-06T08:20:01.827Z,56.83
2023-05-06T08:22:29.311Z,57.25
2023-05-06T08:25:05.761Z,55.39
2023-05-06T08:27:33.130Z,55.23
2023-05-06T08:30:00.658Z,54.21
2023-05-06T08:32:30.732Z,52.78
2023-05-06T08:34:59.813Z,53.99
2023-05-06T08:37:27.224Z,52.42
2023-05-06T08:39:58.161Z,52.43
2023-05-06T08:42:28.271Z,55.56
2023-05-06T08:44:56.362Z,56.84
2023-05-06T08:47:24.066Z,54.39
2023-05-06T08:49:51.551Z,53.87
2023-05-06T08:52:21.429Z,53.60
2023-05-06T08:54:51.956Z,51.50
2023-05-06T08:57:19.433Z,51.08
2023-05-06T08:59:47.611Z,50.52
2023-05-06T09:02:15.686Z,52.31
2023-05-06T09:04:43.148Z,51.29
2023-05-06T09:07:10.659Z,48.92
2023-05-06T09:09:38.044Z,50.06
2023-05-06T09:12:10.266Z,49.25
2023-05-06T09:14:37.617Z,49.57
2023-05-06T09:17:05.467Z,47.97
2023-05-06T09:19:38.097Z,50.21
2023-05-06T09:22:05.753Z,50.44
2023-05-06T09:24:33.107Z,49.87
2023-05-06T09:27:01.580Z,50.87
2023-05-06T09:29:28.907Z,50.06
2023-05-06T09:31:56.565Z,49.21
2023-05-06T09:34:27.524Z,49.49
2023-05-06T09:36:57.192Z,48.40
2023-05-06T09:39:30.872Z,48.02
2023-05-06T09:41:58.373Z,49.80
2023-05-06T09:44:26.895Z,50.07
2023-05-06T09:46:54.522Z,49.13
2023-05-06T09:49:22.129Z,49.23
2023-05-06T09:51:51.666Z,48.52
2023-05-06T09:54:19.506Z,45.95
2023-05-06T09:56:48.087Z,47.84
2023-05-06T09:59:18.437Z,48.23
2023-05-06T10:01:47.016Z,47.70
2023-05-06T10:04:17.402Z,48.91
2023-05-06T10:06:49.041Z,50.25
2023-05-06T10:09:17.573Z,48.80
2023-05-06T10:11:47.150Z,48.29
2023-05-06T10:14:14.651Z,47.94
2023-05-06T10:16:43.064Z,47.76
2023-05-06T10:19:11.911Z,47.08
2023-05-06T10:21:43.605Z,46.01
2023-05-06T10:24:19.163Z,45.33
2023-05-06T10:26:46.875Z,45.27
2023-05-06T10:29:17.382Z,45.46
2023-05-06T10:31:52.589Z,46.60
2023-05-06T10:34:21.358Z,46.21
2023-05-06T10:36:52.026Z,47.05
2023-05-06T10:39:20.954Z,46.54
2023-05-06T10:41:49.079Z,46.29
2023-05-06T10:44:16.464Z,46.02
2023-05-06T10:46:58.646Z,46.02
2023-05-06T10:49:27.625Z,44.86
2023-05-06T10:52:16.965Z,44.27
2023-05-06T10:54:51.630Z,43.04
2023-05-06T10:57:22.533Z,45.53
2023-05-06T10:59:50.003Z,46.21
2023-05-06T11:02:20.045Z,47.27
2023-05-06T11:04:53.040Z,45.29
2023-05-06T11:07:24.042Z,43.96
2023-05-06T11:10:02.190Z,46.24
2023-05-06T11:12:52.724Z,46.18
2023-05-06T11:15:26.538Z,42.26
2023-05-06T11:17:55.683Z,42.05
2023-05-06T11:20:25.610Z,44.37
2023-05-06T11:22:54.005Z,45.12
2023-05-06T11:25:51.345Z,44.93
2023-05-06T11:28:18.820Z,44.87
2023-05-06T11:30:54.795Z,43.71
2023-05-06T11:33:25.066Z,42.36
2023-05-06T11:35:53.163Z,43.60
2023-05-06T11:38:20.568Z,42.58
2023-05-06T11:40:49.111Z,42.46
2023-05-06T11:43:17.000Z,42.50
2023-05-06T11:45:46.737Z,44.37
2023-05-06T11:48:18.592Z,44.03
2023-05-06T11:50:47.394Z,45.29
2023-05-06T11:53:19.067Z,43.86
2023-05-06T11:55:47.684Z,42.57
2023-05-06T11:58:25.516Z,43.54
2023-05-06T12:00:58.049Z,43.75
2023-05-06T12:03:27.660Z,44.50
2023-05-06T12:05:55.821Z,44.35
2023-05-06T12:08:28.257Z,42.42
2023-05-06T12:11:00.538Z,43.60
2023-05-06T12:13:28.987Z,45.04
2023-05-06T12:15:59.497Z,46.20
2023-05-06T12:18:27.917Z,45.04
2023-05-06T12:21:02.594Z,43.86
2023-05-06T12:23:30.093Z,43.81
2023-05-06T12:26:04.064Z,44.61
2023-05-06T12:28:33.229Z,44.58
2023-05-06T12:31:20.594Z,43.50
2023-05-06T12:33:51.495Z,43.54
2023-05-06T12:36:19.378Z,42.21
2023-05-06T12:38:55.022Z,43.01
2023-05-06T12:41:25.980Z,43.49
2023-05-06T12:43:53.409Z,43.17
2023-05-06T12:46:21.223Z,43.03
2023-05-06T12:49:01.929Z,43.14
2023-05-06T12:51:31.014Z,44.14
2023-05-06T12:53:58.549Z,42.54
2023-05-06T12:56:26.088Z,43.95
2023-05-06T12:58:58.362Z,44.44
2023-05-06T13:01:25.940Z,46.25
2023-05-06T13:03:57.111Z,43.53
2023-05-06T13:06:24.509Z,44.18
2023-05-06T13:08:51.928Z,43.23
2023-05-06T13:11:22.295Z,43.33
2023-05-06T13:13:49.666Z,44.24
2023-05-06T13:16:17.358Z,44.47
2023-05-06T13:18:44.734Z,44.71
2023-05-06T13:21:14.072Z,44.43
2023-05-06T13:23:46.926Z,45.43
2023-05-06T13:26:15.024Z,45.13
2023-05-06T13:28:42.392Z,44.71
2023-05-06T13:31:12.678Z,43.54
2023-05-06T13:33:40.222Z,44.04
2023-05-06T13:36:07.777Z,44.37
2023-05-06T13:38:35.115Z,46.04
2023-05-06T13:41:21.446Z,46.60
2023-05-06T13:43:48.760Z,47.06
2023-05-06T13:46:16.250Z,46.54
2023-05-06T13:48:44.749Z,46.54
2023-05-06T13:51:12.206Z,46.52
2023-05-06T13:53:39.637Z,47.12
2023-05-06T13:56:07.680Z,45.90
2023-05-06T13:58:35.384Z,44.98
2023-05-06T14:01:03.640Z,47.36
2023-05-06T14:03:30.989Z,46.31
2023-05-06T14:05:58.512Z,46.98
2023-05-06T14:08:27.118Z,47.72
2023-05-06T14:10:54.641Z,46.64
2023-05-06T14:13:22.047Z,48.04
2023-05-06T14:15:49.540Z,47.97
2023-05-06T14:18:17.112Z,45.41
2023-05-06T14:20:47.297Z,47.37
2023-05-06T14:23:14.690Z,46.75
2023-05-06T14:25:43.451Z,46.45
2023-05-06T14:28:11.168Z,46.99
2023-05-06T14:30:39.315Z,47.00
2023-05-06T14:33:06.836Z,48.61
2023-05-06T14:35:35.308Z,48.20
2023-05-06T14:38:03.273Z,47.09
2023-05-06T14:40:30.654Z,48.19
2023-05-06T14:42:57.987Z,48.71
2023-05-06T14:45:25.476Z,48.60
2023-05-06T14:47:52.982Z,48.02
2023-05-06T14:50:20.547Z,49.23
2023-05-06T14:52:48.279Z,48.91
2023-05-06T14:55:16.045Z,49.60
2023-05-06T14:57:43.316Z,50.65
2023-05-06T15:00:12.771Z,50.11
2023-05-06T15:02:40.951Z,50.68
2023-05-06T15:05:10.308Z,51.69
2023-05-06T15:07:37.946Z,50.39
2023-05-06T15:10:05.732Z,49.98
2023-05-06T15:12:34.247Z,49.42
2023-05-06T15:15:01.611Z,50.37
2023-05-06T15:17:29.498Z,50.66
2023-05-06T15:19:56.952Z,50.30
2023-05-06T15:22:24.321Z,50.81
2023-05-06T15:24:51.800Z,50.62
2023-05-06T15:27:20.139Z,50.18
2023-05-06T15:29:47.518Z,51.96
2023-05-06T15:32:15.104Z,52.26
2023-05-06T15:34:42.929Z,53.43
2023-05-06T15:37:10.626Z,52.31
2023-05-06T15:39:38.216Z,51.97
2023-05-06T15:42:07.325Z,53.71
2023-05-06T15:44:34.813Z,53.66
2023-05-06T15:47:02.184Z,52.86
2023-05-06T15:52:01.835Z,52.40
2023-05-06T15:54:29.207Z,51.75
2023-05-06T15:56:58.353Z,51.74
2023-05-06T15:59:26.991Z,52.09
2023-05-06T16:04:25.046Z,52.72
2023-05-06T16:06:52.734Z,53.24
2023-05-06T16:09:20.088Z,51.89
2023-05-06T16:11:50.379Z,50.94
2023-05-06T16:14:18.895Z,50.85
2023-05-06T16:16:46.932Z,50.70
2023-05-06T16:19:14.374Z,51.07
2023-05-06T16:21:41.795Z,50.54
2023-05-06T16:24:09.328Z,50.77
2023-05-06T16:26:36.719Z,51.26
2023-05-06T16:29:04.053Z,50.90
2023-05-06T16:31:33.263Z,50.66
2023-05-06T16:34:00.951Z,50.50
2023-05-06T16:36:28.719Z,50.54
2023-05-06T16:38:56.000Z,50.57
2023-05-06T16:41:23.420Z,50.55
2023-05-06T16:43:50.754Z,51.47
2023-05-06T16:46:18.430Z,51.32
2023-05-06T16:48:46.226Z,52.04
2023-05-06T16:51:15.763Z,52.35
2023-05-06T16:53:45.220Z,52.77
2023-05-06T16:56:13.614Z,53.25
2023-05-06T16:58:42.517Z,52.68
2023-05-06T17:01:12.890Z,52.81
2023-05-06T17:03:40.608Z,52.82
2023-05-06T17:06:08.372Z,53.21
2023-05-06T17:08:37.214Z,53.96
2023-05-06T17:11:07.556Z,54.11
2023-05-06T17:13:34.934Z,53.88
2023-05-06T17:16:03.018Z,54.34
2023-05-06T17:18:30.336Z,54.38
2023-05-06T17:20:57.855Z,54.68
2023-05-06T17:23:25.345Z,55.06
2023-05-06T17:25:52.880Z,55.83
2023-05-06T17:28:20.570Z,56.07
2023-05-06T17:30:48.036Z,55.81
2023-05-06T17:33:16.070Z,55.51
2023-05-06T17:35:43.531Z,55.44
2023-05-06T17:38:12.282Z,55.44
2023-05-06T17:40:42.201Z,56.03
2023-05-06T17:43:09.694Z,55.83
2023-05-06T17:45:37.159Z,56.16
2023-05-06T17:48:04.796Z,56.70
2023-05-06T17:50:32.264Z,57.52
2023-05-06T17:52:59.599Z,58.30
2023-05-06T17:55:27.324Z,58.64
2023-05-06T17:57:54.612Z,59.11
2023-05-06T18:00:22.254Z,59.93
2023-05-06T18:02:49.733Z,59.54
2023-05-06T18:05:17.491Z,59.94
2023-05-06T18:07:47.995Z,60.06
2023-05-06T18:10:15.498Z,60.36
2023-05-06T18:12:45.943Z,59.90
2023-05-06T18:15:14.311Z,60.32
2023-05-06T18:17:41.688Z,60.51
2023-05-06T18:20:10.313Z,62.12
2023-05-06T18:22:39.040Z,62.61
2023-05-06T18:25:07.182Z,63.79
2023-05-06T18:27:34.829Z,63.79
2023-05-06T18:30:03.482Z,65.05
2023-05-06T18:32:32.147Z,64.74
2023-05-06T18:34:59.986Z,65.98
2023-05-06T18:37:30.502Z,65.56
2023-05-06T18:39:57.923Z,65.71
2023-05-06T18:42:27.418Z,66.05
2023-05-06T18:44:54.895Z,66.55
2023-05-06T18:47:22.271Z,66.84
2023-05-06T18:49:49.713Z,66.33
2023-05-06T18:52:17.854Z,66.68
2023-05-06T18:54:46.245Z,66.73
2023-05-06T18:57:13.951Z,66.75
2023-05-06T18:59:41.694Z,67.25
2023-05-06T19:02:09.161Z,67.68
2023-05-06T19:04:36.709Z,67.88
2023-05-06T19:07:04.312Z,68.92
2023-05-06T19:09:36.733Z,68.46
2023-05-06T19:12:04.690Z,70.59
2023-05-06T19:14:32.566Z,70.64
2023-05-06T19:17:00.076Z,70.72
2023-05-06T19:19:27.575Z,70.86
2023-05-06T19:21:54.904Z,70.19
2023-05-06T19:24:22.322Z,70.98
2023-05-06T19:26:49.635Z,69.58
2023-05-06T19:29:17.231Z,70.11
2023-05-06T19:31:45.171Z,70.72
2023-05-06T19:34:12.668Z,69.18
2023-05-06T19:36:40.020Z,69.92
2023-05-06T19:39:07.402Z,70.75
2023-05-06T19:41:34.767Z,69.30
2023-05-06T19:44:02.167Z,69.18
2023-05-06T19:46:29.608Z,69.84
2023-05-06T19:49:00.227Z,69.87
2023-05-06T19:51:28.348Z,69.08
2023-05-06T19:53:55.794Z,69.28
2023-05-06T19:56:23.129Z,68.73
2023-05-06T19:58:53.403Z,68.90
2023-05-06T20:01:26.741Z,69.73
2023-05-06T20:03:55.230Z,69.57
2023-05-06T20:06:23.842Z,69.14
2023-05-06T20:08:51.296Z,70.62
2023-05-06T20:11:18.733Z,72.03
2023-05-06T20:13:46.248Z,71.75
2023-05-06T20:16:17.157Z,72.15
2023-05-06T20:18:45.274Z,72.84
2023-05-06T20:21:15.630Z,73.42
2023-05-06T20:23:43.170Z,74.05
2023-05-06T20:26:10.528Z,73.83
2023-05-06T20:28:39.223Z,74.25
2023-05-06T20:31:06.818Z,74.44
2023-05-06T20:33:34.421Z,74.93
2023-05-06T20:36:05.892Z,75.08
2023-05-06T20:38:33.654Z,74.67
2023-05-06T20:41:02.857Z,74.64
2023-05-06T20:43:30.627Z,76.24
2023-05-06T20:45:58.112Z,75.27
2023-05-06T20:48:28.013Z,76.37
2023-05-06T20:50:57.105Z,76.19
2023-05-06T20:53:24.614Z,76.62
2023-05-06T20:55:51.972Z,77.38
2023-05-06T20:58:19.481Z,77.30
2023-05-06T21:00:46.920Z,77.86
2023-05-06T21:03:14.566Z,76.37
2023-05-06T21:05:43.798Z,76.82
2023-05-06T21:08:12.437Z,77.10
2023-05-06T21:10:39.729Z,78.66
2023-05-06T21:13:08.000Z,78.35
2023-05-06T21:15:37.634Z,78.85
2023-05-06T21:18:05.064Z,78.19
2023-05-06T21:20:32.492Z,78.76
2023-05-06T21:22:59.800Z,77.96
2023-05-06T21:25:27.172Z,76.49
2023-05-06T21:27:54.525Z,77.46
2023-05-06T21:30:22.100Z,77.16
2023-05-06T21:32:49.965Z,77.03
2023-05-06T21:35:17.743Z,76.65
2023-05-06T21:37:45.079Z,76.71
2023-05-06T21:40:12.728Z,76.74
2023-05-06T21:42:40.061Z,77.35
2023-05-06T21:45:07.833Z,77.02
2023-05-06T21:47:35.307Z,78.13
2023-05-06T21:50:03.370Z,78.22
2023-05-06T21:52:31.258Z,77.54
2023-05-06T21:54:58.881Z,76.97
2023-05-06T21:57:26.552Z,76.45
2023-05-06T21:59:54.007Z,75.86
2023-05-06T22:04:48.728Z,77.10
2023-05-06T22:07:16.563Z,77.25
2023-05-06T22:09:44.414Z,77.05
2023-05-06T22:12:12.691Z,76.47
2023-05-06T22:14:41.725Z,76.42
2023-05-06T22:17:10.487Z,76.61
2023-05-06T22:19:38.519Z,76.83
2023-05-06T22:22:09.611Z,76.07
2023-05-06T22:24:37.056Z,75.57
2023-05-06T22:27:04.362Z,75.97
2023-05-06T22:29:34.972Z,75.27
2023-05-06T22:32:02.393Z,75.84
2023-05-06T22:34:30.048Z,75.65
2023-05-06T22:36:58.325Z,76.60
2023-05-06T22:39:27.761Z,76.42
2023-05-06T22:41:55.080Z,76.58
2023-05-06T22:44:23.085Z,75.83
2023-05-06T22:46:50.505Z,75.90
2023-05-06T22:49:19.443Z,76.42
2023-05-06T22:51:46.895Z,76.13
2023-05-06T22:54:14.252Z,76.64
2023-05-06T22:56:41.570Z,75.57
2023-05-06T22:59:08.979Z,78.47
2023-05-06T23:01:36.358Z,80.56
2023-05-06T23:04:03.999Z,80.57
2023-05-06T23:06:31.747Z,80.56
2023-05-06T23:09:01.959Z,81.38
2023-05-06T23:11:29.277Z,81.02
2023-05-06T23:13:56.722Z,81.08
2023-05-06T23:16:24.008Z,80.72
2023-05-06T23:18:51.391Z,80.41
2023-05-06T23:21:18.735Z,81.16
2023-05-06T23:23:46.125Z,80.81
2023-05-06T23:26:13.454Z,81.09
2023-05-06T23:28:41.184Z,80.79
2023-05-06T23:31:08.552Z,81.04
2023-05-06T23:33:35.923Z,80.74
2023-05-06T23:36:03.489Z,81.38
2023-05-06T23:38:31.017Z,81.50
2023-05-06T23:40:58.447Z,80.48
2023-05-06T23:43:25.981Z,79.34
2023-05-06T23:45:53.473Z,79.81
2023-05-06T23:48:21.108Z,78.41
2023-05-06T23:50:48.964Z,78.83
2023-05-06T23:53:16.341Z,77.76
2023-05-06T23:55:44.150Z,76.02
2023-05-06T23:58:11.679Z,77.64
